AirNav   ProFlight Series 2 Aviation Headset
 
 348 users online  

77AK Tidewater Airport
Wasilla, Alaska, USA

GOING TO WASILLA?


FAA INFORMATION EFFECTIVE 18 JUNE 2020

Location

FAA Identifier: 77AK
Lat/Long: 61-30-09.6100N 149-35-44.3600W
61-30.160167N 149-35.739333W
61.5026694,-149.5956556
(estimated)
Elevation: 80 ft. / 24 m (estimated)
From city: 7 miles SE of WASILLA, AK
Time zone: UTC -8 (UTC -9 during Standard Time)
Zip code: 99654

Airport Operations

Airport use: Private use. Permission required prior to landing
Activation date: 08/2004
Control tower: no
ARTCC: ANCHORAGE CENTER
FSS: KENAI FLIGHT SERVICE STATION [907-283-7211]
Attendance: UNATNDD
Segmented circle: no

Airport Communications

CTAF: 122.8
WX AWOS-3P at IYS (4 nm N): 135.25 (907-373-3801)
WX AWOS-3P at BCV (6 nm SE): 135.55 (907-688-0826)
WX ASOS at FRN (14 nm S): 134.25
WX ASOS at PAQ (16 nm E): 134.75 (907-746-6675)
WX ASOS at MRI (19 nm S): 124.25 (907-271-5277)

Nearby radio navigation aids

VOR radial/distance  VOR name  Freq  Var
BGQr092/11.4BIG LAKE VORTAC112.5019E
TEDr010/22.7ANCHORAGE VOR/DME113.1518E

 
NDB name  Hdg/Dist  Freq  Var  ID
CAMPBELL LAKE017/23.833816ECMQ -.-. -- --.-

Airport Services

Runway Information

Runway 1/19

Dimensions: 1700 x 130 ft. / 518 x 40 m
Surface: turf
RUNWAY 1  RUNWAY 19
Traffic pattern: leftleft

Airport Ownership and Management from official FAA records

Ownership: Privately-owned
Owner: TIDEWATER BLUFFS LLC
3008 LA MESA DR
HENDERSON, NV 89014
Phone 907-376-5113
Manager: ETHAN WILLIAMS
PO BOX 872691
WASILLA, AK 99687
Phone 907-376-5113

Instrument Procedures

There are no published instrument procedures at 77AK.

Some nearby airports with instrument procedures:

PAWS - Wasilla Airport (4 nm N)
PAGQ - Big Lake Airport (6 nm W)
PAFR - Bryant Army Airfield Heliport (14 nm S)
PAAQ - Warren "Bud" Woods Palmer Municipal Airport (16 nm E)
PAED - Elmendorf Air Force Base (16 nm S)
PAMR - Merrill Field Airport (19 nm SW)
PAUO - Willow Airport (20 nm NW)
 
Loc | Ops | Rwys | IFR | FBO | Links
Com | Nav | Svcs | Stats | Notes

Crowley
 
Area around 77AK (Tidewater Airport)
 
Road maps at: MapQuest Bing Google
 
Aerial photo
No photo
 
Sectional chart

 
Airport distance calculator
Flying to Tidewater Airport? Find the distance to fly.

From to 77AK

Sunrise and sunset
Times for 11-Jul-2020
 Local
(UTC-8)
 Zulu
(UTC)
Morning civil twilight02:5410:54
Sunrise04:4212:42
Sunset23:2607:26
Evening civil twilight01:1409:14

Current date and time
Zulu (UTC)  11-Jul-2020 10:16:49
Local (UTC-8)  11-Jul-2020 02:16:49
 
METAR
PABV 
6nm SE 
110956Z AUTO 25003KT 10SM FEW003 SCT046 OVC090 13/13 A2977 RMK AO2 RAB24E35 SLP086 P0000 T01330128
PAFR 
14nm S 
110958Z AUTO 00000KT 10SM OVC028 14/12 A2974 RMK AO2 SLP076 T01390124 $
PAAQ 
16nm E 
110953Z AUTO 00000KT 10SM SCT055 BKN075 OVC090 13/12 A2975 RMK AO2 RAB13E47 SLP075 P0000 T01280122 TSNO $
PAED 
16nm S 
110956Z 15004KT 10SM BKN031 16/12 A2976 RMK AO2A SLP073 T01590115 $
PAMR 
19nm SW 
110953Z 18005KT 10SM SCT034 BKN043 BKN055 16/10 A2975 RMK AO2 SLP075 T01560100
TAF
PAAQ 
16nm E 
110522Z 1106/1206 VRB03KT P6SM VCSH SCT050 BKN080 FM112200 14006KT P6SM -SHRA VCTS BKN060CB
PAED 
16nm S 
110200Z 1102/1208 VRB06KT 9999 VCSH FEW030 SCT120 BKN200 QNH2970INS TEMPO 1102/1112 23010G15KT 9000 SHRA VCTS BKN030CB BKN120 BKN200 BECMG 1111/1112 VRB06KT 9999 NSW BKN030 BKN070 QNH2970INS BECMG 1117/1118 VRB06KT 9999 VCSH BKN020 OVC070 QNH2969INS BECMG 1202/1203 VRB06KT 9999 NSW BKN035 BKN100 QNH2967INS QNH2972INS TX19/1103Z TN13/1113Z
NOTAMs
Click for the latest NOTAMs
NOTAMs are issued by the DoD/FAA and will open in a separate window not controlled by AirNav.

 

 
 

Would you like to see your business listed on this page?

 If your business provides an interesting product or service to pilots, flight crews, aircraft, or users of the Tidewater Airport, you should consider listing it here.  To start the listing process, click on the button below
 
Add a business
 

Other Pages about Tidewater Airport

Update a link
 
Copyright © AirNav, LLC. All rights reserved. Privacy Policy  Contact